createdAt,value
2022-09-28T00:01:15.371Z,69909.00
2022-09-28T00:03:44.042Z,69921.88
2022-09-28T00:06:14.081Z,69874.41
2022-09-28T00:08:41.573Z,69887.84
2022-09-28T00:11:12.903Z,69858.53
2022-09-28T00:13:41.459Z,69924.78
2022-09-28T00:16:14.847Z,69873.19
2022-09-28T00:18:43.681Z,69854.53
2022-09-28T00:21:22.639Z,69917.13
2022-09-28T00:24:12.550Z,69882.53
2022-09-28T00:26:47.007Z,69910.13
2022-09-28T00:29:21.212Z,69883.75
2022-09-28T00:31:52.328Z,69914.50
2022-09-28T00:34:20.313Z,69888.72
2022-09-28T00:36:48.749Z,69886.63
2022-09-28T00:39:17.396Z,69898.97
2022-09-28T00:41:46.062Z,69897.78
2022-09-28T00:44:33.955Z,69892.81
2022-09-28T00:47:20.176Z,69893.38
2022-09-28T00:50:14.266Z,69841.69
2022-09-28T00:52:48.918Z,69880.47
2022-09-28T00:55:54.644Z,69883.69
2022-09-28T00:58:30.101Z,69884.00
2022-09-28T01:00:59.355Z,69928.50
2022-09-28T01:03:28.358Z,69877.25
2022-09-28T01:05:59.136Z,69903.34
2022-09-28T01:08:29.390Z,69899.56
2022-09-28T01:10:59.937Z,69877.91
2022-09-28T01:13:31.547Z,69861.53
2022-09-28T01:16:24.007Z,69868.91
2022-09-28T01:19:06.589Z,69887.66
2022-09-28T01:21:52.051Z,69864.59
2022-09-28T01:24:37.374Z,69858.41
2022-09-28T01:27:20.350Z,69863.09
2022-09-28T01:29:52.724Z,69868.94
2022-09-28T01:32:35.751Z,69877.75
2022-09-28T01:35:33.551Z,69883.88
2022-09-28T01:38:14.743Z,69871.28
2022-09-28T01:40:43.149Z,69850.75
2022-09-28T01:43:24.468Z,69876.25
2022-09-28T01:46:01.866Z,69886.78
2022-09-28T01:48:47.605Z,69841.69
2022-09-28T01:51:34.425Z,69828.78
2022-09-28T01:54:12.317Z,69869.19
2022-09-28T01:57:05.628Z,69885.00
2022-09-28T01:59:38.432Z,69866.84
2022-09-28T02:02:14.645Z,69869.19
2022-09-28T02:05:09.056Z,69850.44
2022-09-28T02:07:49.866Z,69900.22
2022-09-28T02:10:24.638Z,69871.53
2022-09-28T02:13:01.365Z,69843.13
2022-09-28T02:15:42.602Z,69888.81
2022-09-28T02:18:11.474Z,69832.88
2022-09-28T02:20:42.752Z,69861.28
2022-09-28T02:23:10.667Z,69914.91
2022-09-28T02:25:47.569Z,69854.53
2022-09-28T02:28:16.079Z,69867.44
2022-09-28T02:30:44.953Z,69870.94
2022-09-28T02:33:29.294Z,69888.22
2022-09-28T02:35:59.907Z,69862.22
2022-09-28T02:38:28.882Z,69887.97
2022-09-28T02:41:22.289Z,69868.63
2022-09-28T02:43:56.274Z,69882.09
2022-09-28T02:47:02.429Z,69867.44
2022-09-28T02:49:50.372Z,69873.56
2022-09-28T02:52:23.469Z,69870.06
2022-09-28T02:55:03.084Z,69863.91
2022-09-28T02:57:55.963Z,69866.81
2022-09-28T03:00:24.276Z,69900.53
2022-09-28T03:03:10.368Z,69883.84
2022-09-28T03:06:02.493Z,69878.56
2022-09-28T03:08:43.025Z,69846.94
2022-09-28T03:11:30.805Z,69895.28
2022-09-28T03:13:59.867Z,69846.38
2022-09-28T03:16:37.591Z,69882.69
2022-09-28T03:19:05.368Z,69834.06
2022-09-28T03:21:32.768Z,69848.19
2022-09-28T03:24:00.438Z,69855.78
2022-09-28T03:26:27.861Z,69817.75
2022-09-28T03:28:55.300Z,69818.06
2022-09-28T03:31:25.146Z,69845.94
2022-09-28T03:33:53.034Z,69865.25
2022-09-28T03:36:20.512Z,69871.69
2022-09-28T03:38:47.621Z,69865.53
2022-09-28T03:41:14.683Z,69824.84
2022-09-28T03:43:43.377Z,69826.03
2022-09-28T03:46:13.044Z,69819.56
2022-09-28T03:48:45.609Z,69829.88
2022-09-28T03:51:13.325Z,69824.28
2022-09-28T03:53:41.287Z,69811.94
2022-09-28T03:56:14.356Z,69807.31
2022-09-28T03:58:42.375Z,69872.59
2022-09-28T04:01:17.617Z,69829.00
2022-09-28T04:03:47.711Z,69834.25
2022-09-28T04:06:15.248Z,69799.13
2022-09-28T04:08:43.498Z,69832.50
2022-09-28T04:11:11.243Z,69810.84
2022-09-28T04:13:38.372Z,69826.34
2022-09-28T04:16:08.137Z,69824.91
2022-09-28T04:18:35.895Z,69846.84
2022-09-28T04:21:12.993Z,69850.88
2022-09-28T04:23:53.059Z,69847.06
2022-09-28T04:26:24.593Z,69797.03
2022-09-28T04:29:10.491Z,69820.22
2022-09-28T04:31:41.964Z,69793.84
2022-09-28T04:34:09.740Z,69872.91
2022-09-28T04:36:37.171Z,69786.25
2022-09-28T04:39:04.308Z,69881.72
2022-09-28T04:41:33.435Z,69817.94
2022-09-28T04:44:02.002Z,69803.28
2022-09-28T04:46:29.178Z,69774.59
2022-09-28T04:49:17.323Z,69825.53
2022-09-28T04:51:49.127Z,69790.09
2022-09-28T04:54:16.333Z,69832.59
2022-09-28T04:56:43.375Z,69828.53
2022-09-28T04:59:10.455Z,69803.94
2022-09-28T05:01:37.980Z,69818.59
2022-09-28T05:04:25.947Z,69798.13
2022-09-28T05:07:11.738Z,69798.16
2022-09-28T05:09:39.125Z,69782.91
2022-09-28T05:12:06.572Z,69787.94
2022-09-28T05:14:33.612Z,69778.81
2022-09-28T05:17:00.701Z,69785.91
2022-09-28T05:19:28.206Z,69801.69
2022-09-28T05:22:04.540Z,69793.47
2022-09-28T05:24:36.915Z,69749.91
2022-09-28T05:27:04.148Z,69796.69
2022-09-28T05:29:32.347Z,69782.94
2022-09-28T05:32:18.530Z,69754.56
2022-09-28T05:35:06.303Z,69800.78
2022-09-28T05:37:42.161Z,69781.50
2022-09-28T05:40:10.483Z,69762.41
2022-09-28T05:42:39.408Z,69768.25
2022-09-28T05:45:07.233Z,69787.50
2022-09-28T05:47:43.660Z,69815.28
2022-09-28T05:50:12.380Z,69855.94
2022-09-28T05:52:40.169Z,69864.16
2022-09-28T05:55:09.377Z,69886.34
2022-09-28T05:57:36.912Z,69851.81
2022-09-28T06:00:09.066Z,69839.50
2022-09-28T06:03:08.069Z,69829.28
2022-09-28T06:05:37.880Z,69829.56
2022-09-28T06:08:10.815Z,69836.50
2022-09-28T06:10:42.395Z,69853.44
2022-09-28T06:13:10.458Z,69830.59
2022-09-28T06:15:39.187Z,69876.94
2022-09-28T06:18:11.077Z,69860.75
2022-09-28T06:20:43.600Z,69903.16
2022-09-28T06:23:15.453Z,69870.34
2022-09-28T06:25:43.510Z,69856.88
2022-09-28T06:28:14.549Z,69869.16
2022-09-28T06:30:43.710Z,69864.81
2022-09-28T06:33:16.265Z,69878.22
2022-09-28T06:35:43.534Z,69855.66
2022-09-28T06:38:11.434Z,69920.66
2022-09-28T06:40:39.459Z,69927.13
2022-09-28T06:43:11.457Z,69944.66
2022-09-28T06:45:57.046Z,69936.44
2022-09-28T06:48:43.981Z,69923.25
2022-09-28T06:51:14.989Z,69915.53
2022-09-28T06:53:57.136Z,69935.78
2022-09-28T06:57:02.405Z,69953.94
2022-09-28T06:59:30.113Z,69882.38
2022-09-28T07:01:59.719Z,69898.19
2022-09-28T07:04:45.022Z,69979.38
2022-09-28T07:07:34.612Z,69981.44
2022-09-28T07:10:32.044Z,69931.56
2022-09-28T07:13:24.729Z,69958.53
2022-09-28T07:16:06.242Z,69955.88
2022-09-28T07:18:33.474Z,69946.19
2022-09-28T07:21:02.911Z,69993.66
2022-09-28T07:23:31.880Z,69974.59
2022-09-28T07:26:24.483Z,69944.44
2022-09-28T07:29:15.299Z,70018.53
2022-09-28T07:32:03.194Z,69998.28
2022-09-28T07:34:58.705Z,69970.19
2022-09-28T07:37:46.812Z,69995.13
2022-09-28T07:40:32.812Z,69947.91
2022-09-28T07:43:06.904Z,69976.94
2022-09-28T07:45:36.691Z,69951.72
2022-09-28T07:48:04.875Z,69937.91
2022-09-28T07:50:40.568Z,69986.03
2022-09-28T07:53:25.996Z,70037.03
2022-09-28T07:56:17.343Z,69975.75
2022-09-28T07:58:57.383Z,69994.19
2022-09-28T08:01:49.491Z,69993.59
2022-09-28T08:04:18.145Z,69985.91
2022-09-28T08:06:48.303Z,69966.81
2022-09-28T08:09:15.636Z,70019.31
2022-09-28T08:12:19.648Z,70012.25
2022-09-28T08:15:10.331Z,70043.94
2022-09-28T08:17:49.120Z,70002.31
2022-09-28T08:20:39.097Z,70039.88
2022-09-28T08:23:08.647Z,70028.69
2022-09-28T08:25:38.269Z,70007.56
2022-09-28T08:28:07.363Z,70009.34
2022-09-28T08:30:40.252Z,70015.78
2022-09-28T08:33:34.583Z,69972.72
2022-09-28T08:36:21.046Z,69989.47
2022-09-28T08:39:06.512Z,69966.06
2022-09-28T08:42:10.838Z,69976.94
2022-09-28T08:45:08.136Z,69972.84
2022-09-28T08:48:41.586Z,69959.16
2022-09-28T08:51:44.676Z,69910.59
2022-09-28T08:54:56.196Z,69876.94
2022-09-28T08:57:54.180Z,69824.66
2022-09-28T09:00:34.240Z,69786.72
2022-09-28T09:03:18.063Z,69772.75
2022-09-28T09:06:28.417Z,69731.91
2022-09-28T09:09:35.752Z,69795.31
2022-09-28T09:12:13.869Z,69715.00
2022-09-28T09:15:26.809Z,69740.34
2022-09-28T09:18:31.622Z,69767.16
2022-09-28T09:21:21.374Z,69803.38
2022-09-28T09:23:56.876Z,69850.75
2022-09-28T09:26:39.261Z,69865.88
2022-09-28T09:29:44.885Z,69896.00
2022-09-28T09:32:30.751Z,69892.75
2022-09-28T09:35:38.441Z,69875.50
2022-09-28T09:38:47.683Z,69934.06
2022-09-28T09:41:50.953Z,69900.34
2022-09-28T09:45:22.657Z,69859.38
2022-09-28T09:48:50.083Z,69902.13
2022-09-28T09:51:37.217Z,69901.50
2022-09-28T09:54:18.692Z,69927.91
2022-09-28T09:56:57.932Z,69899.88
2022-09-28T09:59:45.090Z,69915.06
2022-09-28T10:02:29.179Z,69887.56
2022-09-28T10:05:27.829Z,69889.94
2022-09-28T10:08:08.637Z,69841.09
2022-09-28T10:10:46.166Z,69866.59
2022-09-28T10:13:14.696Z,69898.44
2022-09-28T10:15:45.320Z,69881.06
2022-09-28T10:18:22.419Z,69935.47
2022-09-28T10:21:14.987Z,69895.84
2022-09-28T10:24:02.855Z,69930.63
2022-09-28T10:26:39.298Z,69964.03
2022-09-28T10:29:19.920Z,69958.75
2022-09-28T10:31:49.960Z,69911.28
2022-09-28T10:34:29.960Z,69956.38
2022-09-28T10:37:10.957Z,69930.59
2022-09-28T10:40:30.967Z,69959.00
2022-09-28T10:43:31.479Z,69958.66
2022-09-28T10:46:23.712Z,69943.47
2022-09-28T10:49:12.558Z,69930.03
2022-09-28T10:51:46.684Z,69939.09
2022-09-28T10:54:30.537Z,69918.28
2022-09-28T10:57:00.467Z,69957.63
2022-09-28T10:59:40.520Z,69893.13
2022-09-28T11:02:36.027Z,69934.09
2022-09-28T11:05:19.633Z,69978.28
2022-09-28T11:07:48.021Z,69960.06
2022-09-28T11:10:27.277Z,69983.22
2022-09-28T11:12:59.657Z,70004.56
2022-09-28T11:15:33.242Z,70021.22
2022-09-28T11:18:39.175Z,70004.81
2022-09-28T11:21:13.984Z,69991.13
2022-09-28T11:24:02.137Z,69992.63
2022-09-28T11:26:45.676Z,69953.34
2022-09-28T11:29:26.745Z,70007.88
2022-09-28T11:32:15.970Z,69987.03
2022-09-28T11:35:03.024Z,70030.66
2022-09-28T11:37:51.406Z,70047.19
2022-09-28T11:41:04.269Z,70130.84
2022-09-28T11:43:50.831Z,70391.06
2022-09-28T11:47:04.984Z,70479.59
2022-09-28T11:49:52.560Z,70522.41
2022-09-28T11:52:48.197Z,70623.81
2022-09-28T11:56:08.569Z,70782.44
2022-09-28T11:58:46.422Z,70604.63
2022-09-28T12:01:37.605Z,70359.84
2022-09-28T12:04:42.477Z,70375.72
2022-09-28T12:07:38.467Z,70293.44
2022-09-28T12:10:31.842Z,70183.47
2022-09-28T12:13:11.225Z,70217.34
2022-09-28T12:16:38.898Z,70249.34
2022-09-28T12:19:45.273Z,70261.38
2022-09-28T12:22:30.414Z,70254.50
2022-09-28T12:24:59.336Z,70240.50
2022-09-28T12:28:18.557Z,70204.09
2022-09-28T12:30:49.033Z,70182.69
2022-09-28T12:33:16.938Z,70169.63
2022-09-28T12:36:14.793Z,70184.69
2022-09-28T12:39:30.932Z,70153.81
2022-09-28T12:42:51.454Z,70164.03
2022-09-28T12:46:17.967Z,70216.50
2022-09-28T12:49:56.362Z,70209.94
2022-09-28T12:51:55.083Z,70243.94
2022-09-28T12:54:50.634Z,70260.84
2022-09-28T12:57:44.895Z,70258.00
2022-09-28T13:00:24.622Z,70266.47
2022-09-28T13:03:42.485Z,70190.03
2022-09-28T13:06:38.649Z,70175.97
2022-09-28T13:09:24.192Z,70157.91
2022-09-28T13:12:13.194Z,70153.59
2022-09-28T13:15:05.215Z,70142.19
2022-09-28T13:18:20.734Z,70093.75
2022-09-28T13:21:28.406Z,70135.16
2022-09-28T13:24:20.683Z,70121.03
2022-09-28T13:26:49.673Z,70170.16
2022-09-28T13:29:20.789Z,70157.81
2022-09-28T13:32:01.132Z,70127.28
2022-09-28T13:34:33.421Z,70144.38
2022-09-28T13:37:21.567Z,70098.53
2022-09-28T13:39:56.268Z,70179.59
2022-09-28T13:42:44.473Z,70207.78
2022-09-28T13:45:20.652Z,70186.56
2022-09-28T13:48:12.261Z,70081.19
2022-09-28T13:51:03.281Z,70165.00
2022-09-28T13:54:01.142Z,70132.06
2022-09-28T13:56:43.001Z,70153.25
2022-09-28T13:59:19.112Z,70164.13
2022-09-28T14:01:55.933Z,70121.00
2022-09-28T14:04:47.587Z,70097.59
2022-09-28T14:07:36.139Z,70108.22
2022-09-28T14:10:46.487Z,70097.19
2022-09-28T14:13:39.536Z,70079.00
2022-09-28T14:16:19.451Z,70060.84
2022-09-28T14:19:28.623Z,70052.06
2022-09-28T14:22:01.530Z,70035.59
2022-09-28T14:24:41.004Z,70062.06
2022-09-28T14:27:38.915Z,70043.91
2022-09-28T14:30:11.077Z,70032.78
2022-09-28T14:32:48.098Z,70008.69
2022-09-28T14:35:39.742Z,70012.31
2022-09-28T14:38:34.298Z,70017.59
2022-09-28T14:41:17.928Z,69984.56
2022-09-28T14:43:45.348Z,69937.41
2022-09-28T14:46:17.059Z,69998.38
2022-09-28T14:48:44.601Z,70009.47
2022-09-28T14:51:27.189Z,70042.78
2022-09-28T14:54:13.078Z,70028.03
2022-09-28T14:57:09.210Z,70054.88
2022-09-28T14:59:46.199Z,70104.16
2022-09-28T15:02:19.810Z,70067.13
2022-09-28T15:05:02.613Z,70077.22
2022-09-28T15:07:43.877Z,70072.25
2022-09-28T15:10:34.317Z,70087.81
2022-09-28T15:13:05.342Z,70072.50
2022-09-28T15:15:36.905Z,70073.06
2022-09-28T15:18:13.145Z,70088.31
2022-09-28T15:20:42.045Z,70105.91
2022-09-28T15:23:26.830Z,70110.00
2022-09-28T15:25:55.459Z,70063.97
2022-09-28T15:28:24.284Z,70075.75
2022-09-28T15:30:58.828Z,70086.09
2022-09-28T15:33:53.146Z,70108.09
2022-09-28T15:36:30.505Z,70077.31
2022-09-28T15:39:01.677Z,70050.59
2022-09-28T15:41:29.963Z,70025.66
2022-09-28T15:44:09.375Z,70078.84
2022-09-28T15:46:41.409Z,70021.97
2022-09-28T15:49:25.731Z,70060.41
2022-09-28T15:52:02.229Z,70043.38
2022-09-28T15:54:44.343Z,70022.88
2022-09-28T15:57:35.919Z,70037.25
2022-09-28T16:00:25.345Z,70078.56
2022-09-28T16:03:05.498Z,70026.94
2022-09-28T16:05:48.528Z,70013.47
2022-09-28T16:08:37.120Z,70017.59
2022-09-28T16:11:20.253Z,70025.84
2022-09-28T16:14:08.902Z,70012.66
2022-09-28T16:16:46.934Z,70005.59
2022-09-28T16:19:36.247Z,70022.94
2022-09-28T16:22:07.919Z,70014.13
2022-09-28T16:24:38.463Z,70012.63
2022-09-28T16:27:22.310Z,70057.50
2022-09-28T16:30:15.764Z,70036.13
2022-09-28T16:32:50.989Z,70051.72
2022-09-28T16:35:27.746Z,70014.13
2022-09-28T16:38:02.633Z,69985.97
2022-09-28T16:40:31.529Z,70033.78
2022-09-28T16:43:03.304Z,70025.88
2022-09-28T16:45:31.133Z,69989.50
2022-09-28T16:47:58.969Z,70029.97
2022-09-28T16:50:26.634Z,69994.81
2022-09-28T16:53:20.787Z,70028.25
2022-09-28T16:55:49.909Z,70020.59
2022-09-28T16:58:17.428Z,70000.63
2022-09-28T17:00:45.763Z,69997.16
2022-09-28T17:03:15.513Z,70010.63
2022-09-28T17:05:43.295Z,69995.41
2022-09-28T17:08:17.921Z,70003.09
2022-09-28T17:13:47.449Z,69986.09
2022-09-28T17:16:36.683Z,69960.88
2022-09-28T17:19:20.147Z,69983.16
2022-09-28T17:21:48.954Z,69976.41
2022-09-28T17:24:18.037Z,69968.53
2022-09-28T17:26:47.693Z,69990.50
2022-09-28T17:29:16.285Z,69979.09
2022-09-28T17:31:45.533Z,69997.84
2022-09-28T17:34:16.515Z,69984.34
2022-09-28T17:36:44.825Z,69988.72
2022-09-28T17:39:14.688Z,70010.72
2022-09-28T17:41:42.119Z,69999.00
2022-09-28T17:44:10.015Z,69966.16
2022-09-28T17:46:40.616Z,69995.47
2022-09-28T17:49:11.609Z,69936.88
2022-09-28T17:51:39.032Z,69981.44
2022-09-28T17:54:08.174Z,69965.59
2022-09-28T17:56:36.559Z,69978.25
2022-09-28T17:59:10.745Z,69965.06
2022-09-28T18:01:39.774Z,69969.47
2022-09-28T18:04:13.179Z,69967.13
2022-09-28T18:06:46.595Z,69958.66
2022-09-28T18:09:24.815Z,69978.63
2022-09-28T18:11:58.352Z,69925.91
2022-09-28T18:14:25.836Z,69920.38
2022-09-28T18:16:54.405Z,69889.91
2022-09-28T18:19:21.778Z,69923.34
2022-09-28T18:21:49.308Z,69890.28
2022-09-28T18:24:16.764Z,69874.53
2022-09-28T18:26:44.149Z,69892.44
2022-09-28T18:29:11.441Z,69847.41
2022-09-28T18:31:38.996Z,69880.50
2022-09-28T18:34:06.217Z,69848.63
2022-09-28T18:36:35.817Z,69897.22
2022-09-28T18:39:03.616Z,69848.03
2022-09-28T18:41:30.652Z,69881.72
2022-09-28T18:44:00.806Z,69867.69
2022-09-28T18:46:30.052Z,69851.28
2022-09-28T18:48:57.349Z,69845.75
2022-09-28T18:51:24.413Z,69823.84
2022-09-28T18:53:51.453Z,69828.53
2022-09-28T18:56:19.706Z,69814.19
2022-09-28T18:58:51.167Z,69830.34
2022-09-28T19:01:36.557Z,69816.34
2022-09-28T19:04:08.492Z,69820.97
2022-09-28T19:06:40.859Z,69817.47
2022-09-28T19:09:09.228Z,69846.75
2022-09-28T19:11:36.437Z,69838.84
2022-09-28T19:14:03.843Z,69844.69
2022-09-28T19:16:34.032Z,69785.00
2022-09-28T19:19:03.133Z,69787.69
2022-09-28T19:21:30.913Z,69820.75
2022-09-28T19:24:02.522Z,69800.28
2022-09-28T19:26:31.346Z,69785.97
2022-09-28T19:28:59.474Z,69784.53
2022-09-28T19:31:27.533Z,69802.41
2022-09-28T19:33:54.673Z,69790.72
2022-09-28T19:36:24.821Z,69788.38
2022-09-28T19:38:57.884Z,69794.84
2022-09-28T19:41:45.976Z,69756.25
2022-09-28T19:44:24.403Z,69733.47
2022-09-28T19:46:57.479Z,69780.84
2022-09-28T19:49:27.091Z,69762.41
2022-09-28T19:52:12.018Z,69756.28
2022-09-28T19:54:41.593Z,69755.13
2022-09-28T19:57:12.471Z,69721.25
2022-09-28T19:59:39.977Z,69718.34
2022-09-28T20:02:08.407Z,69735.88
2022-09-28T20:04:36.191Z,69727.69
2022-09-28T20:07:04.915Z,69738.81
2022-09-28T20:09:33.022Z,69738.81
2022-09-28T20:12:00.561Z,69756.66
2022-09-28T20:14:36.324Z,69720.13
2022-09-28T20:17:05.277Z,69745.25
2022-09-28T20:19:32.637Z,69716.63
2022-09-28T20:22:02.632Z,69700.25
2022-09-28T20:24:31.300Z,69709.66
2022-09-28T20:26:58.979Z,69698.25
2022-09-28T20:29:26.780Z,69693.88
2022-09-28T20:31:54.218Z,69709.66
2022-09-28T20:34:21.698Z,69698.28
2022-09-28T20:36:49.233Z,69712.91
2022-09-28T20:39:16.717Z,69698.59
2022-09-28T20:41:46.078Z,69680.50
2022-09-28T20:44:13.393Z,69699.50
2022-09-28T20:46:40.955Z,69700.41
2022-09-28T20:49:08.544Z,69641.13
2022-09-28T20:51:36.967Z,69660.97
2022-09-28T20:54:04.877Z,69670.31
2022-09-28T20:56:37.888Z,69693.44
2022-09-28T20:59:11.235Z,69645.00
2022-09-28T21:01:38.822Z,69641.22
2022-09-28T21:04:08.001Z,69645.31
2022-09-28T21:06:38.398Z,69654.09
2022-09-28T21:09:07.861Z,69662.59
2022-09-28T21:11:36.135Z,69672.53
2022-09-28T21:14:06.610Z,69676.03
2022-09-28T21:16:35.229Z,69630.50
2022-09-28T21:19:03.670Z,69628.19
2022-09-28T21:21:31.585Z,69628.75
2022-09-28T21:23:59.466Z,69620.28
2022-09-28T21:26:29.337Z,65189.41
2022-09-28T21:29:15.758Z,65189.41
2022-09-28T21:31:45.730Z,65189.41
2022-09-28T21:34:15.455Z,65189.41
2022-09-28T21:36:43.355Z,65189.41
2022-09-28T21:39:11.063Z,65189.41
2022-09-28T21:41:38.736Z,65189.41
2022-09-28T21:44:07.123Z,65189.41
2022-09-28T21:46:35.314Z,65189.41
2022-09-28T21:49:05.045Z,65189.41
2022-09-28T21:51:33.530Z,65189.41
2022-09-28T21:54:01.040Z,65189.41
2022-09-28T21:56:28.675Z,65189.41
2022-09-28T21:58:56.138Z,65189.41
2022-09-28T22:01:26.076Z,65189.41
2022-09-28T22:03:56.345Z,65189.41
2022-09-28T22:06:27.988Z,65189.41
2022-09-28T22:08:56.082Z,65189.41
2022-09-28T22:11:26.643Z,65189.41
2022-09-28T22:13:56.879Z,65189.41
2022-09-28T22:16:28.976Z,65189.41
2022-09-28T22:18:57.125Z,65189.41
2022-09-28T22:21:29.627Z,65189.41
2022-09-28T22:24:02.097Z,65189.41
2022-09-28T22:26:31.706Z,65189.41
2022-09-28T22:29:05.221Z,65189.41
2022-09-28T22:31:35.405Z,65189.41
2022-09-28T22:34:03.179Z,65189.41
2022-09-28T22:36:31.101Z,65189.41
2022-09-28T22:38:59.738Z,65189.41
2022-09-28T22:41:28.303Z,65189.41
2022-09-28T22:43:56.083Z,65189.41
2022-09-28T22:46:26.049Z,65189.41
2022-09-28T22:48:56.414Z,65189.41
2022-09-28T22:51:25.554Z,65189.41
2022-09-28T22:53:52.892Z,65189.41
2022-09-28T22:56:19.913Z,65189.41
2022-09-28T22:58:47.557Z,65189.41
2022-09-28T23:01:31.788Z,65189.41
2022-09-28T23:03:59.472Z,65189.41
2022-09-28T23:06:30.306Z,65189.41
2022-09-28T23:08:57.924Z,65189.41
2022-09-28T23:11:25.136Z,65189.41
2022-09-28T23:13:54.856Z,65189.41
2022-09-28T23:16:24.836Z,65189.41
2022-09-28T23:18:54.209Z,65189.41
2022-09-28T23:21:25.720Z,65189.41
2022-09-28T23:24:00.990Z,65189.41
2022-09-28T23:26:32.030Z,65189.41
2022-09-28T23:28:59.620Z,65189.41
2022-09-28T23:31:31.129Z,65189.41
2022-09-28T23:34:05.187Z,65189.41
2022-09-28T23:36:33.458Z,65189.41
2022-09-28T23:39:00.795Z,65189.41
2022-09-28T23:41:27.954Z,65189.41
2022-09-28T23:43:54.904Z,65189.41
2022-09-28T23:46:21.946Z,65189.41
2022-09-28T23:48:50.202Z,65189.41
2022-09-28T23:51:17.296Z,65189.41
2022-09-28T23:53:44.928Z,65189.41
2022-09-28T23:56:14.337Z,65189.41
2022-09-28T23:58:42.148Z,65189.41
